sensor_id;sensor_type;location;lat;lon;timestamp;temperature;humidity
53264;DHT22;39153;52.680;6.172;2023-02-12T00:00:30;5.20;99.90
53264;DHT22;39153;52.680;6.172;2023-02-12T00:02:56;5.10;99.90
53264;DHT22;39153;52.680;6.172;2023-02-12T00:05:21;5.10;99.90
53264;DHT22;39153;52.680;6.172;2023-02-12T00:07:47;5.40;99.90
53264;DHT22;39153;52.680;6.172;2023-02-12T00:10:13;5.20;99.90
53264;DHT22;39153;52.680;6.172;2023-02-12T00:12:39;5.00;99.90
53264;DHT22;39153;52.680;6.172;2023-02-12T00:15:05;5.10;99.90
53264;DHT22;39153;52.680;6.172;2023-02-12T00:17:31;4.80;99.90
53264;DHT22;39153;52.680;6.172;2023-02-12T00:19:56;4.70;99.90
53264;DHT22;39153;52.680;6.172;2023-02-12T00:22:22;4.60;99.90
53264;DHT22;39153;52.680;6.172;2023-02-12T00:24:48;4.80;99.90
53264;DHT22;39153;52.680;6.172;2023-02-12T00:27:13;4.80;99.90
53264;DHT22;39153;52.680;6.172;2023-02-12T00:29:39;4.70;99.90
53264;DHT22;39153;52.680;6.172;2023-02-12T00:32:05;4.50;99.90
53264;DHT22;39153;52.680;6.172;2023-02-12T00:34:31;4.60;99.90
53264;DHT22;39153;52.680;6.172;2023-02-12T00:36:57;4.40;99.90
53264;DHT22;39153;52.680;6.172;2023-02-12T00:39:22;4.80;99.90
53264;DHT22;39153;52.680;6.172;2023-02-12T00:41:48;4.70;99.90
53264;DHT22;39153;52.680;6.172;2023-02-12T00:44:14;4.70;99.90
53264;DHT22;39153;52.680;6.172;2023-02-12T00:46:40;4.30;99.90
53264;DHT22;39153;52.680;6.172;2023-02-12T00:49:05;4.40;99.90
53264;DHT22;39153;52.680;6.172;2023-02-12T00:51:31;4.60;99.90
53264;DHT22;39153;52.680;6.172;2023-02-12T00:53:57;4.40;99.90
53264;DHT22;39153;52.680;6.172;2023-02-12T00:56:22;4.30;99.90
53264;DHT22;39153;52.680;6.172;2023-02-12T00:58:49;4.60;99.90
53264;DHT22;39153;52.680;6.172;2023-02-12T01:01:15;4.10;99.90
53264;DHT22;39153;52.680;6.172;2023-02-12T01:03:41;4.40;99.90
53264;DHT22;39153;52.680;6.172;2023-02-12T01:06:07;3.90;99.90
53264;DHT22;39153;52.680;6.172;2023-02-12T01:08:32;4.50;99.90
53264;DHT22;39153;52.680;6.172;2023-02-12T01:11:00;4.20;99.90
53264;DHT22;39153;52.680;6.172;2023-02-12T01:13:27;4.30;99.90
53264;DHT22;39153;52.680;6.172;2023-02-12T01:16:06;4.00;99.90
53264;DHT22;39153;52.680;6.172;2023-02-12T01:18:34;4.70;99.90
53264;DHT22;39153;52.680;6.172;2023-02-12T01:21:00;4.40;99.90
53264;DHT22;39153;52.680;6.172;2023-02-12T01:23:26;4.10;99.90
53264;DHT22;39153;52.680;6.172;2023-02-12T01:25:52;4.00;99.90
53264;DHT22;39153;52.680;6.172;2023-02-12T01:28:17;3.90;99.90
53264;DHT22;39153;52.680;6.172;2023-02-12T01:30:43;4.20;99.90
53264;DHT22;39153;52.680;6.172;2023-02-12T01:33:09;4.10;99.90
53264;DHT22;39153;52.680;6.172;2023-02-12T01:35:36;3.80;99.90
53264;DHT22;39153;52.680;6.172;2023-02-12T01:38:02;4.50;99.90
53264;DHT22;39153;52.680;6.172;2023-02-12T01:40:28;4.00;99.90
53264;DHT22;39153;52.680;6.172;2023-02-12T01:42:53;4.10;99.90
53264;DHT22;39153;52.680;6.172;2023-02-12T01:45:32;4.20;99.90
53264;DHT22;39153;52.680;6.172;2023-02-12T01:48:04;4.10;99.90
53264;DHT22;39153;52.680;6.172;2023-02-12T01:50:30;4.20;99.90
53264;DHT22;39153;52.680;6.172;2023-02-12T01:52:56;4.70;99.90
53264;DHT22;39153;52.680;6.172;2023-02-12T01:55:23;3.90;99.90
53264;DHT22;39153;52.680;6.172;2023-02-12T01:57:49;4.20;99.90
53264;DHT22;39153;52.680;6.172;2023-02-12T02:00:21;4.20;99.90
53264;DHT22;39153;52.680;6.172;2023-02-12T02:02:51;4.00;99.90
53264;DHT22;39153;52.680;6.172;2023-02-12T02:05:23;4.20;99.90
53264;DHT22;39153;52.680;6.172;2023-02-12T02:07:52;3.70;99.90
53264;DHT22;39153;52.680;6.172;2023-02-12T02:10:18;3.90;99.90
53264;DHT22;39153;52.680;6.172;2023-02-12T02:12:44;3.70;99.90
53264;DHT22;39153;52.680;6.172;2023-02-12T02:15:30;3.80;99.90
53264;DHT22;39153;52.680;6.172;2023-02-12T02:18:07;4.30;99.90
53264;DHT22;39153;52.680;6.172;2023-02-12T02:34:33;4.10;99.90
53264;DHT22;39153;52.680;6.172;2023-02-12T02:42:45;3.70;99.90
53264;DHT22;39153;52.680;6.172;2023-02-12T02:45:31;4.00;99.90
53264;DHT22;39153;52.680;6.172;2023-02-12T02:48:13;3.80;99.90
53264;DHT22;39153;52.680;6.172;2023-02-12T02:50:47;4.00;99.90
53264;DHT22;39153;52.680;6.172;2023-02-12T02:53:19;4.20;99.90
53264;DHT22;39153;52.680;6.172;2023-02-12T02:55:50;4.30;99.90
53264;DHT22;39153;52.680;6.172;2023-02-12T02:58:21;3.90;99.90
53264;DHT22;39153;52.680;6.172;2023-02-12T03:01:13;4.20;99.90
53264;DHT22;39153;52.680;6.172;2023-02-12T03:03:53;3.60;99.90
53264;DHT22;39153;52.680;6.172;2023-02-12T03:06:26;4.00;99.90
53264;DHT22;39153;52.680;6.172;2023-02-12T03:09:01;4.10;99.90
53264;DHT22;39153;52.680;6.172;2023-02-12T03:11:32;3.90;99.90
53264;DHT22;39153;52.680;6.172;2023-02-12T03:16:39;4.10;99.90
53264;DHT22;39153;52.680;6.172;2023-02-12T03:19:24;3.60;99.90
53264;DHT22;39153;52.680;6.172;2023-02-12T03:22:00;3.60;99.90
53264;DHT22;39153;52.680;6.172;2023-02-12T03:24:38;3.70;99.90
53264;DHT22;39153;52.680;6.172;2023-02-12T03:27:08;3.60;99.90
53264;DHT22;39153;52.680;6.172;2023-02-12T03:29:35;3.80;99.90
53264;DHT22;39153;52.680;6.172;2023-02-12T03:37:40;4.20;99.90
53264;DHT22;39153;52.680;6.172;2023-02-12T03:40:18;4.10;99.90
53264;DHT22;39153;52.680;6.172;2023-02-12T03:48:26;3.50;99.90
53264;DHT22;39153;52.680;6.172;2023-02-12T03:53:22;3.80;99.90
53264;DHT22;39153;52.680;6.172;2023-02-12T03:55:51;3.80;99.90
53264;DHT22;39153;52.680;6.172;2023-02-12T03:58:23;3.40;99.90
53264;DHT22;39153;52.680;6.172;2023-02-12T04:00:51;4.00;99.90
53264;DHT22;39153;52.680;6.172;2023-02-12T04:03:17;3.70;99.90
53264;DHT22;39153;52.680;6.172;2023-02-12T04:05:42;3.50;99.90
53264;DHT22;39153;52.680;6.172;2023-02-12T04:08:10;3.80;99.90
53264;DHT22;39153;52.680;6.172;2023-02-12T04:11:15;3.50;99.90
53264;DHT22;39153;52.680;6.172;2023-02-12T04:14:07;3.60;99.90
53264;DHT22;39153;52.680;6.172;2023-02-12T04:16:47;3.80;99.90
53264;DHT22;39153;52.680;6.172;2023-02-12T04:19:24;3.50;99.90
53264;DHT22;39153;52.680;6.172;2023-02-12T04:22:28;3.80;99.90
53264;DHT22;39153;52.680;6.172;2023-02-12T04:30:20;3.80;99.90
53264;DHT22;39153;52.680;6.172;2023-02-12T04:32:53;3.50;99.90
53264;DHT22;39153;52.680;6.172;2023-02-12T04:35:24;3.70;99.90
53264;DHT22;39153;52.680;6.172;2023-02-12T04:38:07;3.50;99.90
53264;DHT22;39153;52.680;6.172;2023-02-12T04:40:35;3.60;99.90
53264;DHT22;39153;52.680;6.172;2023-02-12T04:43:02;3.30;99.90
53264;DHT22;39153;52.680;6.172;2023-02-12T04:45:30;3.10;99.90
53264;DHT22;39153;52.680;6.172;2023-02-12T04:47:58;3.40;99.90
53264;DHT22;39153;52.680;6.172;2023-02-12T04:50:24;3.30;99.90
53264;DHT22;39153;52.680;6.172;2023-02-12T04:52:50;3.70;99.90
53264;DHT22;39153;52.680;6.172;2023-02-12T04:55:16;3.50;99.90
53264;DHT22;39153;52.680;6.172;2023-02-12T04:57:42;3.50;99.90
53264;DHT22;39153;52.680;6.172;2023-02-12T05:00:10;3.60;99.90
53264;DHT22;39153;52.680;6.172;2023-02-12T05:02:36;3.70;99.90
53264;DHT22;39153;52.680;6.172;2023-02-12T05:05:02;3.70;99.90
53264;DHT22;39153;52.680;6.172;2023-02-12T05:07:28;3.60;99.90
53264;DHT22;39153;52.680;6.172;2023-02-12T05:09:54;3.10;99.90
53264;DHT22;39153;52.680;6.172;2023-02-12T05:12:19;3.10;99.90
53264;DHT22;39153;52.680;6.172;2023-02-12T05:14:45;3.60;99.90
53264;DHT22;39153;52.680;6.172;2023-02-12T05:17:11;3.90;99.90
53264;DHT22;39153;52.680;6.172;2023-02-12T05:19:36;3.30;99.90
53264;DHT22;39153;52.680;6.172;2023-02-12T05:22:02;3.20;99.90
53264;DHT22;39153;52.680;6.172;2023-02-12T05:24:28;3.50;99.90
53264;DHT22;39153;52.680;6.172;2023-02-12T05:26:53;3.20;99.90
53264;DHT22;39153;52.680;6.172;2023-02-12T05:29:19;3.70;99.90
53264;DHT22;39153;52.680;6.172;2023-02-12T05:31:45;3.60;99.90
53264;DHT22;39153;52.680;6.172;2023-02-12T05:34:11;3.50;99.90
53264;DHT22;39153;52.680;6.172;2023-02-12T05:36:38;3.60;99.90
53264;DHT22;39153;52.680;6.172;2023-02-12T05:39:04;3.70;99.90
53264;DHT22;39153;52.680;6.172;2023-02-12T05:41:32;3.40;99.90
53264;DHT22;39153;52.680;6.172;2023-02-12T05:44:03;3.90;99.90
53264;DHT22;39153;52.680;6.172;2023-02-12T05:46:29;3.60;99.90
53264;DHT22;39153;52.680;6.172;2023-02-12T05:48:55;3.30;99.90
53264;DHT22;39153;52.680;6.172;2023-02-12T05:51:23;3.30;99.90
53264;DHT22;39153;52.680;6.172;2023-02-12T05:53:52;3.70;99.90
53264;DHT22;39153;52.680;6.172;2023-02-12T05:56:27;3.90;99.90
53264;DHT22;39153;52.680;6.172;2023-02-12T05:58:58;3.50;99.90
53264;DHT22;39153;52.680;6.172;2023-02-12T06:01:30;3.60;99.90
53264;DHT22;39153;52.680;6.172;2023-02-12T06:03:58;3.80;99.90
53264;DHT22;39153;52.680;6.172;2023-02-12T06:06:25;4.10;99.90
53264;DHT22;39153;52.680;6.172;2023-02-12T06:08:51;3.70;99.90
53264;DHT22;39153;52.680;6.172;2023-02-12T06:11:17;4.10;99.90
53264;DHT22;39153;52.680;6.172;2023-02-12T06:13:44;3.60;99.90
53264;DHT22;39153;52.680;6.172;2023-02-12T06:16:17;3.50;99.90
53264;DHT22;39153;52.680;6.172;2023-02-12T06:18:43;3.60;99.90
53264;DHT22;39153;52.680;6.172;2023-02-12T06:21:09;4.50;99.90
53264;DHT22;39153;52.680;6.172;2023-02-12T06:23:34;4.00;99.90
53264;DHT22;39153;52.680;6.172;2023-02-12T06:26:00;4.20;99.90
53264;DHT22;39153;52.680;6.172;2023-02-12T06:28:26;4.30;99.90
53264;DHT22;39153;52.680;6.172;2023-02-12T06:30:51;3.80;99.90
53264;DHT22;39153;52.680;6.172;2023-02-12T06:33:17;3.60;99.90
53264;DHT22;39153;52.680;6.172;2023-02-12T06:35:43;3.70;99.90
53264;DHT22;39153;52.680;6.172;2023-02-12T06:38:10;3.90;99.90
53264;DHT22;39153;52.680;6.172;2023-02-12T06:40:36;4.30;99.90
53264;DHT22;39153;52.680;6.172;2023-02-12T06:43:01;3.90;99.90
53264;DHT22;39153;52.680;6.172;2023-02-12T06:45:27;4.30;99.90
53264;DHT22;39153;52.680;6.172;2023-02-12T06:47:53;4.20;99.90
53264;DHT22;39153;52.680;6.172;2023-02-12T06:50:19;4.50;99.90
53264;DHT22;39153;52.680;6.172;2023-02-12T06:52:44;4.20;99.90
53264;DHT22;39153;52.680;6.172;2023-02-12T06:55:10;3.70;99.90
53264;DHT22;39153;52.680;6.172;2023-02-12T06:57:36;4.00;99.90
53264;DHT22;39153;52.680;6.172;2023-02-12T07:00:02;4.50;99.90
53264;DHT22;39153;52.680;6.172;2023-02-12T07:02:28;4.40;99.90
53264;DHT22;39153;52.680;6.172;2023-02-12T07:04:54;4.20;99.90
53264;DHT22;39153;52.680;6.172;2023-02-12T07:07:19;3.80;99.90
53264;DHT22;39153;52.680;6.172;2023-02-12T07:09:45;4.30;99.90
53264;DHT22;39153;52.680;6.172;2023-02-12T07:12:11;4.60;99.90
53264;DHT22;39153;52.680;6.172;2023-02-12T07:14:36;4.10;99.90
53264;DHT22;39153;52.680;6.172;2023-02-12T07:17:02;4.50;99.90
53264;DHT22;39153;52.680;6.172;2023-02-12T07:19:30;4.60;99.90
53264;DHT22;39153;52.680;6.172;2023-02-12T07:21:55;4.90;99.90
53264;DHT22;39153;52.680;6.172;2023-02-12T07:24:21;4.10;99.90
53264;DHT22;39153;52.680;6.172;2023-02-12T07:26:47;4.40;99.90
53264;DHT22;39153;52.680;6.172;2023-02-12T07:29:13;4.40;99.90
53264;DHT22;39153;52.680;6.172;2023-02-12T07:31:40;4.40;99.90
53264;DHT22;39153;52.680;6.172;2023-02-12T07:34:06;4.00;99.90
53264;DHT22;39153;52.680;6.172;2023-02-12T07:36:32;4.10;99.90
53264;DHT22;39153;52.680;6.172;2023-02-12T07:38:58;4.60;99.90
53264;DHT22;39153;52.680;6.172;2023-02-12T07:41:34;4.80;99.90
53264;DHT22;39153;52.680;6.172;2023-02-12T07:44:05;4.70;99.90
53264;DHT22;39153;52.680;6.172;2023-02-12T07:46:34;4.90;99.90
53264;DHT22;39153;52.680;6.172;2023-02-12T07:49:03;4.30;99.90
53264;DHT22;39153;52.680;6.172;2023-02-12T07:51:30;4.90;99.90
53264;DHT22;39153;52.680;6.172;2023-02-12T07:53:57;5.00;99.90
53264;DHT22;39153;52.680;6.172;2023-02-12T07:56:25;4.50;99.90
53264;DHT22;39153;52.680;6.172;2023-02-12T07:59:01;5.10;99.90
53264;DHT22;39153;52.680;6.172;2023-02-12T08:01:30;5.10;99.90
53264;DHT22;39153;52.680;6.172;2023-02-12T08:04:02;5.10;99.90
53264;DHT22;39153;52.680;6.172;2023-02-12T08:06:30;5.30;99.90
53264;DHT22;39153;52.680;6.172;2023-02-12T08:08:58;4.60;99.90
53264;DHT22;39153;52.680;6.172;2023-02-12T08:11:25;4.90;99.90
53264;DHT22;39153;52.680;6.172;2023-02-12T08:13:51;5.50;99.90
53264;DHT22;39153;52.680;6.172;2023-02-12T08:16:20;5.50;99.90
53264;DHT22;39153;52.680;6.172;2023-02-12T08:18:46;4.90;99.90
53264;DHT22;39153;52.680;6.172;2023-02-12T08:21:18;5.60;99.90
53264;DHT22;39153;52.680;6.172;2023-02-12T08:23:45;5.50;99.90
53264;DHT22;39153;52.680;6.172;2023-02-12T08:26:16;5.50;99.90
53264;DHT22;39153;52.680;6.172;2023-02-12T08:28:51;5.00;99.90
53264;DHT22;39153;52.680;6.172;2023-02-12T08:31:23;5.20;99.90
53264;DHT22;39153;52.680;6.172;2023-02-12T08:33:51;5.90;99.90
53264;DHT22;39153;52.680;6.172;2023-02-12T08:36:19;5.10;99.90
53264;DHT22;39153;52.680;6.172;2023-02-12T08:38:46;5.70;99.90
53264;DHT22;39153;52.680;6.172;2023-02-12T08:41:14;5.60;99.90
53264;DHT22;39153;52.680;6.172;2023-02-12T08:43:40;5.30;99.90
53264;DHT22;39153;52.680;6.172;2023-02-12T08:46:18;4.80;99.90
53264;DHT22;39153;52.680;6.172;2023-02-12T08:48:44;6.10;99.90
53264;DHT22;39153;52.680;6.172;2023-02-12T08:51:16;5.50;99.90
53264;DHT22;39153;52.680;6.172;2023-02-12T08:53:44;5.80;99.90
53264;DHT22;39153;52.680;6.172;2023-02-12T08:56:13;6.00;99.90
53264;DHT22;39153;52.680;6.172;2023-02-12T08:58:39;6.10;99.90
53264;DHT22;39153;52.680;6.172;2023-02-12T09:01:10;6.00;99.90
53264;DHT22;39153;52.680;6.172;2023-02-12T09:03:36;5.60;99.90
53264;DHT22;39153;52.680;6.172;2023-02-12T09:06:02;5.60;99.90
53264;DHT22;39153;52.680;6.172;2023-02-12T09:08:29;5.90;99.90
53264;DHT22;39153;52.680;6.172;2023-02-12T09:10:54;6.20;99.90
53264;DHT22;39153;52.680;6.172;2023-02-12T09:13:20;6.30;99.90
53264;DHT22;39153;52.680;6.172;2023-02-12T09:15:46;6.40;99.90
53264;DHT22;39153;52.680;6.172;2023-02-12T09:18:12;6.30;99.90
53264;DHT22;39153;52.680;6.172;2023-02-12T09:20:43;5.80;99.90
53264;DHT22;39153;52.680;6.172;2023-02-12T09:23:12;6.00;99.90
53264;DHT22;39153;52.680;6.172;2023-02-12T09:25:40;6.50;99.90
53264;DHT22;39153;52.680;6.172;2023-02-12T09:28:07;5.90;99.90
53264;DHT22;39153;52.680;6.172;2023-02-12T09:30:33;6.10;99.90
53264;DHT22;39153;52.680;6.172;2023-02-12T09:32:59;6.70;99.90
53264;DHT22;39153;52.680;6.172;2023-02-12T09:35:24;6.40;99.90
53264;DHT22;39153;52.680;6.172;2023-02-12T09:37:52;6.10;99.90
53264;DHT22;39153;52.680;6.172;2023-02-12T09:43:17;6.10;99.90
53264;DHT22;39153;52.680;6.172;2023-02-12T09:45:57;6.80;99.90
53264;DHT22;39153;52.680;6.172;2023-02-12T09:51:03;6.20;99.90
53264;DHT22;39153;52.680;6.172;2023-02-12T09:53:35;6.40;99.90
53264;DHT22;39153;52.680;6.172;2023-02-12T09:56:05;6.90;99.90
53264;DHT22;39153;52.680;6.172;2023-02-12T09:58:40;6.40;99.90
53264;DHT22;39153;52.680;6.172;2023-02-12T10:01:12;6.60;99.90
53264;DHT22;39153;52.680;6.172;2023-02-12T10:03:38;6.90;99.90
53264;DHT22;39153;52.680;6.172;2023-02-12T10:06:07;6.80;99.90
53264;DHT22;39153;52.680;6.172;2023-02-12T10:11:28;7.20;99.90
53264;DHT22;39153;52.680;6.172;2023-02-12T10:22:25;7.20;99.90
53264;DHT22;39153;52.680;6.172;2023-02-12T10:27:57;6.90;99.90
53264;DHT22;39153;52.680;6.172;2023-02-12T10:33:05;6.90;99.90
53264;DHT22;39153;52.680;6.172;2023-02-12T10:35:32;7.40;99.90
53264;DHT22;39153;52.680;6.172;2023-02-12T10:38:27;7.40;99.90
53264;DHT22;39153;52.680;6.172;2023-02-12T10:40:51;8.10;99.90
53264;DHT22;39153;52.680;6.172;2023-02-12T10:43:19;7.00;99.90
53264;DHT22;39153;52.680;6.172;2023-02-12T10:45:45;7.10;99.90
53264;DHT22;39153;52.680;6.172;2023-02-12T10:53:42;7.80;99.90
53264;DHT22;39153;52.680;6.172;2023-02-12T11:01:27;8.00;99.90
53264;DHT22;39153;52.680;6.172;2023-02-12T11:03:56;7.60;99.90
53264;DHT22;39153;52.680;6.172;2023-02-12T11:06:28;8.10;99.90
53264;DHT22;39153;52.680;6.172;2023-02-12T11:08:55;8.10;99.90
53264;DHT22;39153;52.680;6.172;2023-02-12T11:11:35;7.80;99.90
53264;DHT22;39153;52.680;6.172;2023-02-12T11:14:17;7.80;99.90
53264;DHT22;39153;52.680;6.172;2023-02-12T11:16:51;8.00;99.90
53264;DHT22;39153;52.680;6.172;2023-02-12T11:19:23;8.00;99.90
53264;DHT22;39153;52.680;6.172;2023-02-12T11:21:51;7.90;99.90
53264;DHT22;39153;52.680;6.172;2023-02-12T11:24:35;8.30;99.90
53264;DHT22;39153;52.680;6.172;2023-02-12T11:29:42;8.10;99.90
53264;DHT22;39153;52.680;6.172;2023-02-12T11:32:16;8.20;99.90
53264;DHT22;39153;52.680;6.172;2023-02-12T11:34:42;8.10;99.90
53264;DHT22;39153;52.680;6.172;2023-02-12T11:37:17;8.20;99.90
53264;DHT22;39153;52.680;6.172;2023-02-12T11:39:46;8.40;99.90
53264;DHT22;39153;52.680;6.172;2023-02-12T11:42:17;8.30;99.90
53264;DHT22;39153;52.680;6.172;2023-02-12T11:45:02;8.30;99.90
53264;DHT22;39153;52.680;6.172;2023-02-12T11:47:31;8.30;99.90
53264;DHT22;39153;52.680;6.172;2023-02-12T11:50:15;9.90;99.90
53264;DHT22;39153;52.680;6.172;2023-02-12T11:52:42;8.40;99.90
53264;DHT22;39153;52.680;6.172;2023-02-12T11:55:36;8.60;99.90
53264;DHT22;39153;52.680;6.172;2023-02-12T12:01:01;8.50;99.90
53264;DHT22;39153;52.680;6.172;2023-02-12T12:03:33;8.50;99.90
53264;DHT22;39153;52.680;6.172;2023-02-12T12:14:33;8.60;99.90
53264;DHT22;39153;52.680;6.172;2023-02-12T12:17:24;8.80;99.90
53264;DHT22;39153;52.680;6.172;2023-02-12T12:20:14;8.80;99.90
53264;DHT22;39153;52.680;6.172;2023-02-12T12:23:04;8.80;99.90
53264;DHT22;39153;52.680;6.172;2023-02-12T12:25:46;8.70;99.90
53264;DHT22;39153;52.680;6.172;2023-02-12T12:31:13;8.90;99.90
53264;DHT22;39153;52.680;6.172;2023-02-12T12:33:48;8.90;99.90
53264;DHT22;39153;52.680;6.172;2023-02-12T12:39:14;8.90;99.90
53264;DHT22;39153;52.680;6.172;2023-02-12T12:55:22;8.70;99.90
53264;DHT22;39153;52.680;6.172;2023-02-12T12:58:17;8.80;99.90
53264;DHT22;39153;52.680;6.172;2023-02-12T13:06:28;8.70;99.90
53264;DHT22;39153;52.680;6.172;2023-02-12T13:14:46;8.70;99.90
53264;DHT22;39153;52.680;6.172;2023-02-12T13:23:14;8.60;99.90
53264;DHT22;39153;52.680;6.172;2023-02-12T13:28:20;8.60;99.90
53264;DHT22;39153;52.680;6.172;2023-02-12T13:30:49;8.60;99.90
53264;DHT22;39153;52.680;6.172;2023-02-12T13:33:43;8.60;99.90
53264;DHT22;39153;52.680;6.172;2023-02-12T13:36:12;8.60;99.90
53264;DHT22;39153;52.680;6.172;2023-02-12T13:38:50;8.60;99.90
53264;DHT22;39153;52.680;6.172;2023-02-12T13:41:17;8.50;99.90
53264;DHT22;39153;52.680;6.172;2023-02-12T13:46:21;8.50;99.90
53264;DHT22;39153;52.680;6.172;2023-02-12T13:51:40;8.50;99.90
53264;DHT22;39153;52.680;6.172;2023-02-12T13:56:51;8.50;99.90
53264;DHT22;39153;52.680;6.172;2023-02-12T14:01:56;8.50;99.90
53264;DHT22;39153;52.680;6.172;2023-02-12T14:07:11;8.50;99.90
53264;DHT22;39153;52.680;6.172;2023-02-12T14:24:55;8.40;99.90
53264;DHT22;39153;52.680;6.172;2023-02-12T14:37:53;8.30;99.90
53264;DHT22;39153;52.680;6.172;2023-02-12T14:40:48;8.30;99.90
53264;DHT22;39153;52.680;6.172;2023-02-12T14:43:31;8.40;99.90
53264;DHT22;39153;52.680;6.172;2023-02-12T14:49:01;8.30;99.90
53264;DHT22;39153;52.680;6.172;2023-02-12T14:51:42;8.30;99.90
53264;DHT22;39153;52.680;6.172;2023-02-12T14:54:39;8.30;99.90
53264;DHT22;39153;52.680;6.172;2023-02-12T14:57:32;8.30;99.90
53264;DHT22;39153;52.680;6.172;2023-02-12T15:02:54;8.30;99.90
53264;DHT22;39153;52.680;6.172;2023-02-12T15:05:27;8.30;99.90
53264;DHT22;39153;52.680;6.172;2023-02-12T15:07:58;8.30;99.90
53264;DHT22;39153;52.680;6.172;2023-02-12T15:10:29;8.30;99.90
53264;DHT22;39153;52.680;6.172;2023-02-12T15:13:12;8.30;99.90
53264;DHT22;39153;52.680;6.172;2023-02-12T15:15:56;8.30;99.90
53264;DHT22;39153;52.680;6.172;2023-02-12T15:18:52;8.20;99.90
53264;DHT22;39153;52.680;6.172;2023-02-12T15:21:22;8.20;99.90
53264;DHT22;39153;52.680;6.172;2023-02-12T15:26:34;8.20;99.90
53264;DHT22;39153;52.680;6.172;2023-02-12T15:29:01;8.10;99.90
53264;DHT22;39153;52.680;6.172;2023-02-12T15:31:29;8.10;99.90
53264;DHT22;39153;52.680;6.172;2023-02-12T15:33:57;8.10;99.90
53264;DHT22;39153;52.680;6.172;2023-02-12T15:36:26;8.10;99.90
53264;DHT22;39153;52.680;6.172;2023-02-12T15:38:58;8.10;99.90
53264;DHT22;39153;52.680;6.172;2023-02-12T15:41:44;8.10;99.90
53264;DHT22;39153;52.680;6.172;2023-02-12T15:44:21;8.10;99.90
53264;DHT22;39153;52.680;6.172;2023-02-12T15:47:14;8.00;99.90
53264;DHT22;39153;52.680;6.172;2023-02-12T15:49:42;8.10;99.90
53264;DHT22;39153;52.680;6.172;2023-02-12T15:52:19;8.00;99.90
53264;DHT22;39153;52.680;6.172;2023-02-12T15:54:46;8.10;99.90
53264;DHT22;39153;52.680;6.172;2023-02-12T15:57:18;8.00;99.90
53264;DHT22;39153;52.680;6.172;2023-02-12T15:59:53;8.00;99.90
53264;DHT22;39153;52.680;6.172;2023-02-12T16:02:25;8.00;99.90
53264;DHT22;39153;52.680;6.172;2023-02-12T16:04:54;7.90;99.90
53264;DHT22;39153;52.680;6.172;2023-02-12T16:07:21;7.90;99.90
53264;DHT22;39153;52.680;6.172;2023-02-12T16:09:49;7.90;99.90
53264;DHT22;39153;52.680;6.172;2023-02-12T16:12:19;8.10;99.90
53264;DHT22;39153;52.680;6.172;2023-02-12T16:14:51;7.90;99.90
53264;DHT22;39153;52.680;6.172;2023-02-12T16:20:20;7.80;99.90
53264;DHT22;39153;52.680;6.172;2023-02-12T16:22:48;7.90;99.90
53264;DHT22;39153;52.680;6.172;2023-02-12T16:25:27;7.90;99.90
53264;DHT22;39153;52.680;6.172;2023-02-12T16:30:26;7.80;99.90
53264;DHT22;39153;52.680;6.172;2023-02-12T16:32:52;7.80;99.90
53264;DHT22;39153;52.680;6.172;2023-02-12T16:35:25;7.80;99.90
53264;DHT22;39153;52.680;6.172;2023-02-12T16:40:30;7.80;99.90
53264;DHT22;39153;52.680;6.172;2023-02-12T16:42:58;7.70;99.90
53264;DHT22;39153;52.680;6.172;2023-02-12T16:50:30;7.70;99.90
53264;DHT22;39153;52.680;6.172;2023-02-12T16:53:02;7.90;99.90
53264;DHT22;39153;52.680;6.172;2023-02-12T16:55:28;7.70;99.90
53264;DHT22;39153;52.680;6.172;2023-02-12T16:57:53;7.70;99.90
53264;DHT22;39153;52.680;6.172;2023-02-12T17:00:19;7.70;99.90
53264;DHT22;39153;52.680;6.172;2023-02-12T17:02:46;7.70;99.90
53264;DHT22;39153;52.680;6.172;2023-02-12T17:05:13;7.70;99.90
53264;DHT22;39153;52.680;6.172;2023-02-12T17:07:41;7.70;99.90
53264;DHT22;39153;52.680;6.172;2023-02-12T17:10:12;7.80;99.90
53264;DHT22;39153;52.680;6.172;2023-02-12T17:12:49;7.70;99.90
53264;DHT22;39153;52.680;6.172;2023-02-12T17:15:24;7.70;99.90
53264;DHT22;39153;52.680;6.172;2023-02-12T17:17:51;7.70;99.90
53264;DHT22;39153;52.680;6.172;2023-02-12T17:20:17;7.60;99.90
53264;DHT22;39153;52.680;6.172;2023-02-12T17:22:50;7.60;99.90
53264;DHT22;39153;52.680;6.172;2023-02-12T17:25:16;7.60;99.90
53264;DHT22;39153;52.680;6.172;2023-02-12T17:27:43;7.70;99.90
53264;DHT22;39153;52.680;6.172;2023-02-12T17:30:13;7.70;99.90
53264;DHT22;39153;52.680;6.172;2023-02-12T17:32:39;7.60;99.90
53264;DHT22;39153;52.680;6.172;2023-02-12T17:35:05;7.60;99.90
53264;DHT22;39153;52.680;6.172;2023-02-12T17:37:31;7.60;99.90
53264;DHT22;39153;52.680;6.172;2023-02-12T17:39:56;7.70;99.90
53264;DHT22;39153;52.680;6.172;2023-02-12T17:42:22;7.60;99.90
53264;DHT22;39153;52.680;6.172;2023-02-12T17:44:48;7.60;99.90
53264;DHT22;39153;52.680;6.172;2023-02-12T17:47:14;7.60;99.90
53264;DHT22;39153;52.680;6.172;2023-02-12T17:49:39;7.60;99.90
53264;DHT22;39153;52.680;6.172;2023-02-12T17:52:06;7.60;99.90
53264;DHT22;39153;52.680;6.172;2023-02-12T17:54:32;7.60;99.90
53264;DHT22;39153;52.680;6.172;2023-02-12T17:56:58;7.60;99.90
53264;DHT22;39153;52.680;6.172;2023-02-12T17:59:23;7.60;99.90
53264;DHT22;39153;52.680;6.172;2023-02-12T18:01:49;7.60;99.90
53264;DHT22;39153;52.680;6.172;2023-02-12T18:04:15;7.50;99.90
53264;DHT22;39153;52.680;6.172;2023-02-12T18:06:40;7.50;99.90
53264;DHT22;39153;52.680;6.172;2023-02-12T18:09:06;7.60;99.90
53264;DHT22;39153;52.680;6.172;2023-02-12T18:11:32;7.60;99.90
53264;DHT22;39153;52.680;6.172;2023-02-12T18:13:58;7.50;99.90
53264;DHT22;39153;52.680;6.172;2023-02-12T18:16:26;7.50;99.90
53264;DHT22;39153;52.680;6.172;2023-02-12T18:18:52;7.60;99.90
53264;DHT22;39153;52.680;6.172;2023-02-12T18:21:18;7.50;99.90
53264;DHT22;39153;52.680;6.172;2023-02-12T18:23:44;7.50;99.90
53264;DHT22;39153;52.680;6.172;2023-02-12T18:26:14;7.40;99.90
53264;DHT22;39153;52.680;6.172;2023-02-12T18:28:41;7.50;99.90
53264;DHT22;39153;52.680;6.172;2023-02-12T18:31:07;7.50;99.90
53264;DHT22;39153;52.680;6.172;2023-02-12T18:33:34;7.50;99.90
53264;DHT22;39153;52.680;6.172;2023-02-12T18:36:12;7.40;99.90
53264;DHT22;39153;52.680;6.172;2023-02-12T18:38:39;7.50;99.90
53264;DHT22;39153;52.680;6.172;2023-02-12T18:41:12;7.50;99.90
53264;DHT22;39153;52.680;6.172;2023-02-12T18:43:38;7.50;99.90
53264;DHT22;39153;52.680;6.172;2023-02-12T18:46:06;7.40;99.90
53264;DHT22;39153;52.680;6.172;2023-02-12T18:48:31;7.40;99.90
53264;DHT22;39153;52.680;6.172;2023-02-12T18:51:00;7.40;99.90
53264;DHT22;39153;52.680;6.172;2023-02-12T18:53:26;7.50;99.90
53264;DHT22;39153;52.680;6.172;2023-02-12T18:55:51;7.50;99.90
53264;DHT22;39153;52.680;6.172;2023-02-12T18:58:17;7.40;99.90
53264;DHT22;39153;52.680;6.172;2023-02-12T19:00:43;7.40;99.90
53264;DHT22;39153;52.680;6.172;2023-02-12T19:03:08;7.40;99.90
53264;DHT22;39153;52.680;6.172;2023-02-12T19:05:34;7.40;99.90
53264;DHT22;39153;52.680;6.172;2023-02-12T19:08:00;7.40;99.90
53264;DHT22;39153;52.680;6.172;2023-02-12T19:10:26;7.30;99.90